Time;durP1;ratioP1;P1;durP2;ratioP2;P2;SDS_P1;SDS_P2;PMS_P1;PMS_P2;Temp;Humidity;BMP_temperature;BMP_pressure;BME280_temperature;BME280_humidity;BME280_pressure;Samples;Min_cycle;Max_cycle;Signal;HPM_P1;HPM_P2
2021/07/25 00:02:07;;;;;;;22.30;15.07;;;19.90;99.90;;;;;;5094327;27;20561;-73
2021/07/25 00:04:34;;;;;;;32.93;17.67;;;19.90;99.90;;;;;;5090554;28;20448;-69
2021/07/25 00:07:01;;;;;;;26.77;16.17;;;19.80;99.90;;;;;;5097566;27;20570;-70
2021/07/25 00:09:27;;;;;;;26.23;15.97;;;19.90;99.90;;;;;;5095023;27;20539;-69
2021/07/25 00:11:54;;;;;;;27.87;15.67;;;19.80;99.90;;;;;;5099087;27;20500;-72
2021/07/25 00:14:21;;;;;;;24.17;15.63;;;19.80;99.90;;;;;;5102439;27;20551;-70
2021/07/25 00:16:50;;;;;;;25.60;16.23;;;19.80;99.90;;;;;;5111424;28;20532;-70
2021/07/25 00:19:17;;;;;;;30.10;16.60;;;19.90;99.90;;;;;;5112472;28;20488;-71
2021/07/25 00:21:43;;;;;;;24.50;16.13;;;19.80;99.90;;;;;;5107615;28;20480;-72
2021/07/25 00:24:10;;;;;;;27.67;16.87;;;19.90;99.90;;;;;;5104320;28;20494;-69
2021/07/25 00:26:45;;;;;;;24.30;15.67;;;19.80;99.90;;;;;;5109283;28;20449;-71
2021/07/25 00:29:12;;;;;;;23.13;15.70;;;19.80;99.90;;;;;;5109354;28;20508;-73
2021/07/25 00:31:39;;;;;;;29.10;16.20;;;19.70;99.90;;;;;;5111403;28;20484;-73
2021/07/25 00:34:07;;;;;;;25.67;15.87;;;19.60;99.90;;;;;;5112675;28;20448;-71
2021/07/25 00:36:34;;;;;;;26.80;15.37;;;19.50;99.90;;;;;;5113449;27;20469;-70
2021/07/25 00:39:01;;;;;;;26.90;15.87;;;19.50;99.90;;;;;;5103950;28;20564;-70
2021/07/25 00:41:28;;;;;;;26.00;15.33;;;19.50;99.90;;;;;;5098489;28;20539;-71
2021/07/25 00:43:55;;;;;;;25.80;15.50;;;19.50;99.90;;;;;;5103794;28;20539;-69
2021/07/25 00:46:22;;;;;;;25.80;16.53;;;19.50;99.90;;;;;;5095628;28;20964;-71
2021/07/25 00:48:49;;;;;;;24.77;15.57;;;19.40;99.90;;;;;;5102408;28;20555;-70
2021/07/25 00:51:17;;;;;;;25.70;16.13;;;19.40;99.90;;;;;;5093186;28;20459;-73
2021/07/25 00:53:45;;;;;;;25.20;14.93;;;19.40;99.90;;;;;;5101310;28;20934;-71
2021/07/25 00:56:12;;;;;;;27.80;16.60;;;19.50;99.90;;;;;;5101505;28;20985;-70
2021/07/25 00:58:41;;;;;;;21.07;15.40;;;19.50;99.90;;;;;;5091768;28;20557;-70
2021/07/25 01:01:09;;;;;;;30.73;17.20;;;19.40;99.90;;;;;;5095778;28;20449;-70
2021/07/25 01:03:48;;;;;;;24.73;14.20;;;19.20;99.90;;;;;;5094587;28;20584;-70
2021/07/25 01:06:26;;;;;;;28.10;17.13;;;19.20;99.90;;;;;;5099273;27;20573;-69
2021/07/25 01:09:00;;;;;;;28.83;17.30;;;19.30;99.90;;;;;;5093117;28;20816;-72
2021/07/25 01:11:32;;;;;;;29.73;16.00;;;19.20;99.90;;;;;;5093823;28;20966;-70
2021/07/25 01:14:03;;;;;;;25.17;17.40;;;19.20;99.90;;;;;;5103113;28;20452;-69
2021/07/25 01:16:31;;;;;;;26.53;14.00;;;19.20;99.90;;;;;;5099945;28;20533;-69
2021/07/25 01:18:59;;;;;;;34.27;18.53;;;19.20;99.90;;;;;;5094263;27;20496;-71
2021/07/25 01:21:27;;;;;;;25.67;14.43;;;19.20;99.90;;;;;;5094375;28;20463;-72
2021/07/25 01:23:58;;;;;;;27.70;15.70;;;19.10;99.90;;;;;;5088596;28;20485;-70
2021/07/25 01:26:29;;;;;;;24.80;14.00;;;19.00;99.90;;;;;;5100520;28;20461;-71
2021/07/25 01:28:58;;;;;;;27.87;14.57;;;19.10;99.90;;;;;;5091206;28;20557;-69
2021/07/25 01:31:30;;;;;;;23.80;13.73;;;19.10;99.90;;;;;;5092023;28;20516;-69
2021/07/25 01:33:59;;;;;;;28.93;15.10;;;19.20;99.90;;;;;;5094105;27;20449;-69
2021/07/25 01:36:28;;;;;;;23.60;15.47;;;19.30;99.90;;;;;;5100086;28;20481;-69
2021/07/25 01:38:55;;;;;;;30.67;12.57;;;19.30;99.90;;;;;;5093043;28;20508;-69
2021/07/25 01:41:22;;;;;;;21.93;14.33;;;19.20;99.90;;;;;;5095498;28;20489;-68
2021/07/25 01:43:51;;;;;;;21.83;12.90;;;19.20;99.90;;;;;;5094066;28;20461;-70
2021/07/25 01:46:18;;;;;;;21.70;14.73;;;19.30;99.90;;;;;;5092077;28;20518;-69
2021/07/25 01:48:46;;;;;;;24.57;14.60;;;19.30;99.90;;;;;;5094453;27;20564;-69
2021/07/25 01:51:14;;;;;;;22.67;14.50;;;19.20;99.90;;;;;;5094497;28;20540;-69
2021/07/25 01:53:42;;;;;;;25.03;14.70;;;19.20;99.90;;;;;;5089236;28;20462;-69
2021/07/25 01:56:09;;;;;;;21.53;14.53;;;19.30;99.90;;;;;;5091825;28;20444;-69
2021/07/25 01:58:36;;;;;;;24.80;15.37;;;19.50;99.90;;;;;;5094957;27;20467;-71
2021/07/25 02:01:03;;;;;;;28.03;14.70;;;19.40;99.90;;;;;;5089161;27;20449;-71
2021/07/25 02:03:30;;;;;;;24.87;14.10;;;19.40;99.90;;;;;;5098815;27;20548;-71
2021/07/25 02:05:57;;;;;;;30.30;14.53;;;19.50;99.90;;;;;;5095589;27;20888;-70
2021/07/25 02:08:24;;;;;;;27.07;15.27;;;19.40;99.90;;;;;;5090305;28;20545;-71
2021/07/25 02:10:53;;;;;;;32.83;15.30;;;19.30;99.90;;;;;;5089764;27;21030;-70
2021/07/25 02:13:22;;;;;;;21.70;12.70;;;19.20;99.90;;;;;;5095985;28;20491;-70
2021/07/25 02:15:49;;;;;;;27.90;14.80;;;19.20;99.90;;;;;;5099675;28;20453;-71
2021/07/25 02:18:16;;;;;;;19.70;13.00;;;19.30;99.90;;;;;;5099508;28;20449;-73
2021/07/25 02:20:44;;;;;;;27.10;15.47;;;19.20;99.90;;;;;;5097091;27;20556;-70
2021/07/25 02:23:11;;;;;;;23.53;15.07;;;19.30;99.90;;;;;;5094475;28;20464;-71
2021/07/25 02:25:38;;;;;;;21.87;14.10;;;19.20;99.90;;;;;;5099686;27;20983;-69
2021/07/25 02:28:07;;;;;;;24.17;15.30;;;19.10;99.90;;;;;;5098071;28;20472;-70
2021/07/25 02:30:35;;;;;;;29.50;13.47;;;19.00;99.90;;;;;;5094337;27;21015;-70
2021/07/25 02:33:02;;;;;;;20.37;12.60;;;19.00;99.90;;;;;;5086015;28;20545;-70
2021/07/25 02:35:28;;;;;;;28.43;13.30;;;19.00;99.90;;;;;;5094158;28;20541;-70
2021/07/25 02:37:56;;;;;;;26.60;14.30;;;19.10;99.90;;;;;;5096128;28;20529;-69
2021/07/25 02:40:23;;;;;;;23.00;13.87;;;19.10;99.90;;;;;;5096163;27;20818;-70
2021/07/25 02:42:50;;;;;;;23.67;13.00;;;19.10;99.90;;;;;;5095360;28;20541;-70
2021/07/25 02:45:18;;;;;;;27.90;16.93;;;19.30;99.90;;;;;;5096490;27;20532;-71
2021/07/25 02:47:45;;;;;;;23.23;15.20;;;19.10;99.90;;;;;;5096532;28;20515;-68
2021/07/25 02:50:13;;;;;;;23.93;14.23;;;19.20;99.90;;;;;;5092148;27;20915;-72
2021/07/25 02:52:40;;;;;;;27.80;14.67;;;19.10;99.90;;;;;;5092836;28;20548;-71
2021/07/25 02:55:08;;;;;;;30.77;16.07;;;19.10;99.90;;;;;;5094425;28;20528;-71
2021/07/25 02:57:35;;;;;;;24.90;15.80;;;19.00;99.90;;;;;;5097642;28;20542;-69
2021/07/25 03:00:01;;;;;;;27.10;15.60;;;19.00;99.90;;;;;;5099149;28;20892;-71
2021/07/25 03:02:30;;;;;;;23.73;14.70;;;18.90;99.90;;;;;;5090124;28;20636;-69
2021/07/25 03:04:56;;;;;;;27.00;15.00;;;18.90;99.90;;;;;;5092548;28;20461;-69
2021/07/25 03:07:23;;;;;;;36.87;15.10;;;18.90;99.90;;;;;;5094381;28;20452;-69
2021/07/25 03:09:50;;;;;;;28.83;17.90;;;18.90;99.90;;;;;;5098430;28;20984;-69
2021/07/25 03:12:17;;;;;;;19.77;12.67;;;18.90;99.90;;;;;;5097426;27;20836;-69
2021/07/25 03:14:44;;;;;;;23.37;13.63;;;18.90;99.90;;;;;;5102546;28;20480;-70
2021/07/25 03:17:11;;;;;;;19.00;13.73;;;18.90;99.90;;;;;;5099636;27;20575;-70
2021/07/25 03:19:39;;;;;;;27.50;15.07;;;18.90;99.90;;;;;;5111122;28;20532;-70
2021/07/25 03:22:09;;;;;;;27.40;15.43;;;18.70;99.90;;;;;;5112586;27;20484;-69
2021/07/25 03:24:36;;;;;;;26.27;16.50;;;18.70;99.90;;;;;;5100976;28;20488;-71
2021/07/25 03:27:03;;;;;;;26.87;16.50;;;18.80;99.90;;;;;;5096345;27;20469;-70
2021/07/25 03:29:30;;;;;;;24.70;14.40;;;18.80;99.90;;;;;;5102230;28;20572;-70
2021/07/25 03:31:57;;;;;;;25.27;15.63;;;18.80;99.90;;;;;;5096576;28;20506;-71
2021/07/25 03:34:24;;;;;;;29.40;16.23;;;18.80;99.90;;;;;;5098838;28;20445;-70
2021/07/25 03:36:52;;;;;;;24.63;15.60;;;18.70;99.90;;;;;;5099313;27;20479;-69
2021/07/25 03:39:21;;;;;;;32.17;16.60;;;18.70;99.90;;;;;;5093760;28;20510;-71
2021/07/25 03:41:48;;;;;;;24.30;14.50;;;18.70;99.90;;;;;;5096548;28;20848;-69
2021/07/25 03:44:15;;;;;;;34.07;16.70;;;18.60;99.90;;;;;;5099096;27;20453;-72
2021/07/25 03:46:42;;;;;;;24.47;13.70;;;18.50;99.90;;;;;;5096164;27;20445;-69
2021/07/25 03:49:10;;;;;;;22.53;12.87;;;18.50;99.90;;;;;;5099594;27;21024;-71
2021/07/25 03:51:38;;;;;;;25.77;14.50;;;18.50;99.90;;;;;;5104470;28;20441;-70
2021/07/25 03:54:07;;;;;;;28.73;13.90;;;18.40;99.90;;;;;;5095674;27;20453;-69
2021/07/25 03:56:35;;;;;;;21.83;13.73;;;18.30;99.90;;;;;;5098278;27;20493;-69
2021/07/25 03:59:03;;;;;;;20.40;13.70;;;18.30;99.90;;;;;;5099677;27;20471;-68
2021/07/25 04:01:30;;;;;;;29.67;17.10;;;18.30;99.90;;;;;;5102803;27;22222;-69
2021/07/25 04:03:57;;;;;;;26.73;14.77;;;18.40;99.90;;;;;;5101256;28;20559;-68
2021/07/25 04:06:24;;;;;;;27.93;15.23;;;18.40;99.90;;;;;;5097800;28;20580;-73
2021/07/25 04:08:51;;;;;;;24.17;14.17;;;18.50;99.90;;;;;;5099614;28;20477;-70
2021/07/25 04:11:20;;;;;;;23.47;14.10;;;18.50;99.90;;;;;;5094368;28;20588;-72
2021/07/25 04:13:47;;;;;;;21.93;14.23;;;18.50;99.90;;;;;;5097729;28;20499;-69
2021/07/25 04:16:14;;;;;;;25.67;14.50;;;18.50;99.90;;;;;;5096791;28;21041;-68
2021/07/25 04:18:41;;;;;;;21.50;13.83;;;18.50;99.90;;;;;;5094593;27;20542;-68
2021/07/25 04:21:08;;;;;;;24.33;14.20;;;18.60;99.90;;;;;;5101041;27;21008;-70
2021/07/25 04:23:38;;;;;;;21.10;13.47;;;18.50;99.90;;;;;;5096677;28;20488;-69
2021/07/25 04:26:05;;;;;;;19.97;12.37;;;18.40;99.90;;;;;;5135544;22;20528;-72
2021/07/25 04:28:34;;;;;;;22.60;13.27;;;18.60;99.90;;;;;;5067354;28;20543;-71
2021/07/25 04:31:01;;;;;;;21.80;14.60;;;18.60;99.90;;;;;;5078103;28;20530;-72
2021/07/25 04:33:29;;;;;;;28.37;13.20;;;18.70;99.90;;;;;;5082120;28;20469;-72
2021/07/25 04:35:57;;;;;;;17.13;11.50;;;18.60;99.90;;;;;;5086199;28;20503;-72
2021/07/25 04:38:25;;;;;;;20.33;11.47;;;18.40;99.90;;;;;;5083208;28;20462;-72
2021/07/25 04:40:57;;;;;;;22.30;11.83;;;18.40;99.90;;;;;;5078934;28;20553;-73
2021/07/25 04:43:29;;;;;;;19.33;12.07;;;18.30;99.90;;;;;;5073833;28;20508;-72
2021/07/25 04:46:02;;;;;;;19.40;11.67;;;18.20;99.90;;;;;;5058579;28;20454;-72
2021/07/25 04:48:33;;;;;;;18.77;11.10;;;18.20;99.90;;;;;;5065767;28;20442;-71
2021/07/25 04:51:06;;;;;;;19.93;12.60;;;18.20;99.90;;;;;;5056669;28;20443;-72
2021/07/25 04:53:38;;;;;;;17.33;12.23;;;18.30;99.90;;;;;;5058613;28;20503;-71
2021/07/25 04:56:07;;;;;;;22.57;15.07;;;18.40;99.90;;;;;;5059682;28;20459;-71
2021/07/25 04:58:40;;;;;;;21.33;13.43;;;18.60;99.90;;;;;;5048883;28;20495;-72
2021/07/25 05:01:12;;;;;;;18.97;11.83;;;18.80;99.90;;;;;;5059786;28;20838;-72
2021/07/25 05:03:40;;;;;;;19.77;12.50;;;18.90;99.90;;;;;;5055062;28;20450;-72
2021/07/25 05:06:10;;;;;;;18.53;11.10;;;19.10;99.90;;;;;;5058818;28;20542;-71
2021/07/25 05:08:38;;;;;;;16.67;12.57;;;19.40;99.90;;;;;;5054186;28;20461;-72
2021/07/25 05:11:12;;;;;;;15.30;11.40;;;19.60;99.90;;;;;;5054373;28;20862;-72
2021/07/25 05:13:43;;;;;;;18.87;11.47;;;19.90;99.90;;;;;;5050720;28;20554;-71
2021/07/25 05:16:26;;;;;;;16.70;10.43;;;20.00;99.90;;;;;;5056436;28;20598;-72
2021/07/25 05:19:08;;;;;;;19.60;11.40;;;20.20;99.90;;;;;;5067605;28;20515;-72
2021/07/25 05:21:41;;;;;;;14.63;10.83;;;20.40;99.90;;;;;;5060939;28;20799;-72
2021/07/25 05:24:10;;;;;;;16.93;9.23;;;20.60;99.90;;;;;;5069839;28;20455;-72
2021/07/25 05:26:38;;;;;;;19.40;10.93;;;20.80;99.90;;;;;;5078624;28;20552;-72
2021/07/25 05:29:06;;;;;;;16.20;9.80;;;20.60;99.90;;;;;;5070066;28;20510;-71
2021/07/25 05:31:36;;;;;;;13.63;9.70;;;20.80;99.90;;;;;;5072687;28;20459;-72
2021/07/25 05:34:03;;;;;;;14.57;10.80;;;20.90;99.90;;;;;;5075803;28;20466;-72
2021/07/25 05:36:31;;;;;;;16.93;10.87;;;21.20;99.90;;;;;;5075302;28;20477;-71
2021/07/25 05:38:58;;;;;;;15.63;10.53;;;21.20;99.90;;;;;;5071044;28;20524;-73
2021/07/25 05:41:25;;;;;;;14.97;10.50;;;21.40;99.90;;;;;;5069649;28;20452;-73
2021/07/25 05:43:52;;;;;;;15.00;9.77;;;21.50;99.90;;;;;;5075936;28;20494;-72
2021/07/25 05:46:19;;;;;;;17.57;10.73;;;21.60;99.90;;;;;;5073241;28;20490;-72
2021/07/25 05:48:47;;;;;;;11.90;8.30;;;21.70;99.90;;;;;;5073583;28;20517;-71
2021/07/25 05:51:14;;;;;;;13.63;9.17;;;21.90;99.90;;;;;;5077954;28;20444;-71
2021/07/25 05:53:41;;;;;;;13.63;9.63;;;22.40;99.90;;;;;;5072078;28;20462;-72
2021/07/25 05:56:09;;;;;;;17.10;8.40;;;22.70;99.90;;;;;;5073661;28;20447;-71
2021/07/25 05:58:37;;;;;;;16.93;9.43;;;22.90;99.90;;;;;;5076105;28;20473;-72
2021/07/25 06:01:04;;;;;;;11.87;9.70;;;23.20;99.90;;;;;;5074662;28;20454;-71
2021/07/25 06:03:31;;;;;;;11.60;8.00;;;23.40;99.90;;;;;;5068889;28;20528;-72
2021/07/25 06:05:59;;;;;;;11.97;9.13;;;23.60;99.90;;;;;;5066514;28;20462;-70
2021/07/25 06:08:26;;;;;;;13.70;8.20;;;23.50;99.90;;;;;;5054035;28;20530;-72
2021/07/25 06:10:53;;;;;;;9.03;7.93;;;23.50;99.90;;;;;;5060589;28;20483;-72
2021/07/25 06:13:20;;;;;;;14.20;8.60;;;23.50;99.90;;;;;;5058471;28;20527;-71
2021/07/25 06:15:48;;;;;;;10.73;8.00;;;23.40;99.90;;;;;;5057309;28;20454;-71
2021/07/25 06:18:15;;;;;;;10.10;7.23;;;23.50;99.90;;;;;;5050605;28;21305;-71
2021/07/25 06:20:43;;;;;;;10.00;7.23;;;23.70;99.90;;;;;;5055079;28;20947;-71
2021/07/25 06:23:14;;;;;;;10.50;7.03;;;23.90;99.90;;;;;;5049273;28;20485;-73
2021/07/25 06:25:42;;;;;;;10.63;7.40;;;24.00;99.90;;;;;;5055966;28;20451;-72
2021/07/25 06:28:09;;;;;;;9.13;7.00;;;24.40;99.90;;;;;;5054513;28;20475;-72
2021/07/25 06:30:37;;;;;;;10.80;7.80;;;24.60;99.90;;;;;;5050524;28;20967;-72
2021/07/25 06:33:05;;;;;;;12.03;7.07;;;24.60;99.90;;;;;;5048124;28;20470;-72
2021/07/25 06:35:34;;;;;;;10.07;6.57;;;25.00;99.90;;;;;;5051688;28;20549;-72
2021/07/25 06:38:03;;;;;;;7.27;6.53;;;25.30;99.90;;;;;;5057526;28;20482;-72
2021/07/25 06:40:32;;;;;;;7.83;5.37;;;25.30;99.90;;;;;;5047484;28;20491;-72
2021/07/25 06:43:01;;;;;;;7.27;5.17;;;25.00;99.90;;;;;;5053883;28;20547;-72
2021/07/25 06:45:30;;;;;;;7.10;5.77;;;24.90;99.90;;;;;;5051501;28;20512;-71
2021/07/25 06:47:57;;;;;;;5.77;5.10;;;25.10;99.90;;;;;;5050712;28;20474;-72
2021/07/25 06:50:25;;;;;;;10.47;5.83;;;25.40;99.90;;;;;;5044105;28;20479;-70
2021/07/25 06:52:53;;;;;;;9.10;5.20;;;25.40;99.90;;;;;;5054268;28;20470;-72
2021/07/25 06:55:22;;;;;;;5.63;4.70;;;25.50;99.90;;;;;;5063472;28;20529;-72
2021/07/25 06:57:51;;;;;;;13.60;6.07;;;25.50;99.90;;;;;;5061003;28;20590;-72
2021/07/25 07:00:18;;;;;;;6.93;4.60;;;25.50;99.90;;;;;;5056750;28;20579;-72
2021/07/25 07:02:49;;;;;;;7.63;4.70;;;25.70;99.90;;;;;;5054995;28;20540;-72
2021/07/25 07:05:17;;;;;;;5.67;4.73;;;25.40;99.90;;;;;;5057238;28;25812;-71
2021/07/25 07:07:46;;;;;;;8.50;5.40;;;25.00;99.90;;;;;;5048108;28;20569;-70
2021/07/25 07:10:14;;;;;;;7.63;4.07;;;25.50;99.90;;;;;;5050953;28;20479;-72
2021/07/25 07:12:41;;;;;;;6.70;3.77;;;25.40;99.90;;;;;;5050295;28;20483;-71
2021/07/25 07:15:11;;;;;;;12.13;4.60;;;26.00;99.90;;;;;;5049245;28;20466;-72
2021/07/25 07:17:39;;;;;;;7.30;5.27;;;25.90;99.90;;;;;;5049382;28;21022;-72
2021/07/25 07:20:08;;;;;;;5.60;4.93;;;26.20;99.90;;;;;;5050294;28;20983;-72
2021/07/25 07:22:36;;;;;;;7.23;4.00;;;26.70;99.90;;;;;;5050108;28;20473;-72
2021/07/25 07:25:05;;;;;;;9.73;4.80;;;26.80;99.90;;;;;;5054195;28;20615;-73
2021/07/25 07:27:32;;;;;;;5.53;3.60;;;26.30;99.90;;;;;;5059041;28;20476;-72
2021/07/25 07:30:00;;;;;;;4.07;3.47;;;25.60;99.90;;;;;;5053055;28;20561;-72
2021/07/25 07:32:28;;;;;;;4.83;3.70;;;25.10;99.90;;;;;;5060699;28;20478;-72
2021/07/25 07:34:55;;;;;;;5.23;4.37;;;24.70;99.90;;;;;;5067999;28;20469;-72
2021/07/25 07:37:22;;;;;;;5.80;3.27;;;24.70;99.90;;;;;;5059252;28;21005;-72
2021/07/25 07:39:49;;;;;;;6.67;3.40;;;24.80;99.90;;;;;;5056830;28;20501;-72
2021/07/25 07:42:16;;;;;;;4.03;3.57;;;24.80;99.90;;;;;;5052663;28;20494;-72
2021/07/25 07:44:44;;;;;;;4.00;3.27;;;25.40;99.90;;;;;;5053847;28;20490;-72
2021/07/25 07:47:11;;;;;;;3.97;3.57;;;25.60;99.90;;;;;;5056321;28;20548;-72
2021/07/25 07:49:39;;;;;;;6.63;3.73;;;25.70;99.90;;;;;;5048402;28;20570;-72
2021/07/25 07:52:07;;;;;;;6.13;3.27;;;26.20;99.90;;;;;;5055482;28;20509;-72
2021/07/25 07:54:34;;;;;;;4.37;2.90;;;26.40;99.90;;;;;;5052626;28;20478;-72
2021/07/25 07:57:02;;;;;;;5.47;3.60;;;26.80;99.90;;;;;;5064120;28;20560;-72
2021/07/25 07:59:29;;;;;;;4.40;3.03;;;27.40;99.90;;;;;;5062241;28;20864;-72
2021/07/25 08:01:56;;;;;;;4.97;3.20;;;27.50;99.90;;;;;;5055137;28;20515;-72
2021/07/25 08:04:23;;;;;;;9.60;3.50;;;27.10;99.90;;;;;;5044774;28;20494;-72
2021/07/25 08:06:51;;;;;;;9.70;3.40;;;26.70;99.90;;;;;;5048858;28;20528;-70
2021/07/25 08:09:18;;;;;;;3.80;2.63;;;26.60;99.90;;;;;;5055408;28;22812;-70
2021/07/25 08:11:46;;;;;;;5.03;3.03;;;26.20;99.90;;;;;;5059297;28;20470;-71
2021/07/25 08:14:14;;;;;;;3.60;2.93;;;25.90;99.90;;;;;;5058301;28;20580;-72
2021/07/25 08:16:41;;;;;;;6.40;4.50;;;26.10;99.90;;;;;;5053611;28;20481;-72
2021/07/25 08:19:08;;;;;;;4.97;3.30;;;26.30;99.90;;;;;;5067628;28;20458;-72
2021/07/25 08:21:36;;;;;;;3.83;2.93;;;26.50;99.90;;;;;;5057850;28;20457;-72
2021/07/25 08:24:04;;;;;;;5.23;3.73;;;27.60;99.90;;;;;;5048908;28;20459;-71
2021/07/25 08:26:32;;;;;;;4.20;3.33;;;28.60;99.90;;;;;;5056407;28;20608;-72
2021/07/25 08:28:59;;;;;;;4.70;3.00;;;29.60;99.90;;;;;;5056868;28;20534;-72
2021/07/25 08:31:26;;;;;;;3.83;3.43;;;30.10;99.90;;;;;;5055225;28;25210;-72
2021/07/25 08:33:53;;;;;;;5.00;3.23;;;29.80;99.90;;;;;;5054294;28;20580;-72
2021/07/25 08:36:20;;;;;;;4.70;3.37;;;29.60;99.90;;;;;;5058463;28;20989;-70
2021/07/25 08:38:47;;;;;;;4.13;3.73;;;29.80;99.90;;;;;;5051782;28;20576;-73
2021/07/25 08:41:17;;;;;;;4.57;3.20;;;30.40;99.90;;;;;;5048831;28;20544;-71
2021/07/25 08:43:46;;;;;;;3.63;3.00;;;31.20;99.90;;;;;;5049285;28;20459;-69
2021/07/25 08:46:16;;;;;;;6.50;3.20;;;31.30;99.90;;;;;;5051755;28;20617;-70
2021/07/25 08:48:48;;;;;;;5.00;2.70;;;31.20;99.90;;;;;;5059257;28;20531;-71
2021/07/25 08:51:21;;;;;;;2.37;2.17;;;30.70;99.90;;;;;;5056091;28;20494;-71
2021/07/25 08:54:00;;;;;;;2.60;2.40;;;31.30;99.90;;;;;;5043308;28;20481;-71
2021/07/25 08:56:31;;;;;;;3.83;2.67;;;31.80;99.90;;;;;;5049419;28;20510;-72
2021/07/25 08:59:00;;;;;;;3.40;3.00;;;32.00;99.90;;;;;;5046846;28;20642;-72
2021/07/25 09:01:34;;;;;;;3.10;2.80;;;31.70;99.90;;;;;;5048836;28;20507;-70
2021/07/25 09:04:03;;;;;;;5.07;3.10;;;31.30;99.90;;;;;;5045184;28;20459;-71
2021/07/25 09:06:41;;;;;;;5.17;3.93;;;31.10;99.90;;;;;;5054458;28;20482;-71
2021/07/25 09:09:08;;;;;;;3.83;3.00;;;30.70;99.90;;;;;;5044523;28;20462;-72
2021/07/25 09:11:37;;;;;;;3.80;3.03;;;30.50;99.90;;;;;;5050421;28;20478;-70
2021/07/25 09:14:05;;;;;;;7.50;3.70;;;30.60;99.90;;;;;;5049303;28;20534;-71
2021/07/25 09:16:36;;;;;;;4.10;3.40;;;31.20;99.90;;;;;;5054516;28;20522;-72
2021/07/25 09:19:04;;;;;;;4.37;3.67;;;31.80;99.90;;;;;;5052846;28;20696;-72
2021/07/25 09:21:42;;;;;;;6.03;3.50;;;32.20;99.90;;;;;;5052982;28;20563;-72
2021/07/25 09:24:24;;;;;;;4.10;3.70;;;32.50;99.90;;;;;;5052803;28;20470;-73
2021/07/25 09:26:58;;;;;;;4.07;2.60;;;32.60;99.90;;;;;;5050962;28;20856;-72
2021/07/25 09:29:27;;;;;;;7.90;3.50;;;32.80;99.90;;;;;;5051253;28;20544;-73
2021/07/25 09:32:10;;;;;;;4.40;2.90;;;32.90;99.90;;;;;;5050978;28;21045;-72
2021/07/25 09:34:39;;;;;;;3.30;2.93;;;33.70;99.90;;;;;;5055539;28;20458;-72
2021/07/25 09:37:13;;;;;;;6.30;2.93;;;34.10;99.90;;;;;;5054400;28;20537;-73
2021/07/25 09:39:42;;;;;;;3.60;2.77;;;34.10;99.90;;;;;;5056409;28;20525;-72
2021/07/25 09:42:12;;;;;;;3.50;2.97;;;33.80;99.90;;;;;;5044843;28;20555;-71
2021/07/25 09:44:50;;;;;;;6.57;2.70;;;33.50;99.90;;;;;;5058342;28;20504;-70
2021/07/25 09:47:28;;;;;;;3.20;2.60;;;33.30;99.90;;;;;;5054119;28;20508;-71
2021/07/25 09:49:56;;;;;;;4.50;3.10;;;34.10;99.90;;;;;;5054649;28;20459;-72
2021/07/25 09:52:30;;;;;;;3.37;3.07;;;34.90;99.50;;;;;;5052719;28;20493;-72
2021/07/25 09:54:58;;;;;;;4.40;2.57;;;35.20;99.90;;;;;;5047948;28;20478;-72
2021/07/25 09:57:28;;;;;;;4.20;2.73;;;35.10;97.10;;;;;;5044797;28;20502;-71
2021/07/25 09:59:56;;;;;;;4.40;3.60;;;34.70;97.70;;;;;;5048892;28;20537;-71
2021/07/25 10:02:34;;;;;;;4.30;3.00;;;34.10;97.50;;;;;;5060133;28;20912;-71
2021/07/25 10:05:13;;;;;;;3.97;2.60;;;33.50;98.80;;;;;;5050608;28;20502;-72
2021/07/25 10:07:41;;;;;;;3.70;2.70;;;33.70;97.80;;;;;;5051217;28;20481;-71
2021/07/25 10:10:10;;;;;;;4.50;3.00;;;33.90;96.80;;;;;;5059548;28;21016;-71
2021/07/25 10:12:39;;;;;;;2.30;2.10;;;32.90;98.10;;;;;;5057345;28;20896;-71
2021/07/25 10:15:08;;;;;;;4.07;2.63;;;32.90;99.10;;;;;;5056470;28;22538;-72
2021/07/25 10:17:37;;;;;;;3.83;3.17;;;33.50;98.20;;;;;;5044136;28;20497;-71
2021/07/25 10:20:06;;;;;;;3.60;2.53;;;34.10;96.20;;;;;;5046608;28;20941;-72
2021/07/25 10:22:35;;;;;;;3.43;2.80;;;33.50;96.60;;;;;;5050426;28;20547;-71
2021/07/25 10:25:05;;;;;;;3.00;2.67;;;32.90;97.10;;;;;;5048486;28;20456;-71
2021/07/25 10:27:33;;;;;;;4.70;3.00;;;32.70;99.30;;;;;;5045146;28;20502;-73
2021/07/25 10:30:05;;;;;;;4.87;3.00;;;33.20;98.30;;;;;;5048736;28;20463;-71
2021/07/25 10:32:34;;;;;;;2.80;2.40;;;33.20;99.30;;;;;;5043445;28;20517;-72
2021/07/25 10:35:04;;;;;;;2.30;2.10;;;34.00;96.80;;;;;;5055865;28;20451;-72
2021/07/25 10:37:32;;;;;;;2.93;2.70;;;34.30;95.70;;;;;;5056125;28;20485;-71
2021/07/25 10:40:01;;;;;;;4.20;2.63;;;33.00;95.80;;;;;;5057046;28;20487;-72
2021/07/25 10:42:31;;;;;;;6.23;3.00;;;32.70;95.90;;;;;;5052860;28;20463;-72
2021/07/25 10:44:59;;;;;;;3.93;2.90;;;32.90;96.30;;;;;;5060084;28;20442;-72
2021/07/25 10:47:30;;;;;;;3.90;2.20;;;33.40;95.20;;;;;;5063603;28;20490;-72
2021/07/25 10:50:04;;;;;;;3.73;2.70;;;34.00;94.30;;;;;;5060724;28;20499;-72
2021/07/25 10:53:02;;;;;;;6.33;2.27;;;34.80;92.80;;;;;;5062476;28;20463;-72
2021/07/25 10:55:56;;;;;;;5.60;3.70;;;35.20;92.70;;;;;;5048728;28;20483;-73
2021/07/25 10:58:24;;;;;;;3.20;2.10;;;34.20;91.60;;;;;;5020577;28;20482;-71
2021/07/25 11:00:52;;;;;;;4.13;2.23;;;33.60;91.00;;;;;;5052402;28;20534;-72
2021/07/25 11:03:43;;;;;;;5.63;2.20;;;33.10;91.80;;;;;;5054095;28;20551;-72
2021/07/25 11:06:17;;;;;;;3.67;2.90;;;33.00;91.70;;;;;;5060474;28;20447;-72
2021/07/25 11:08:46;;;;;;;3.47;2.57;;;32.40;93.60;;;;;;5061067;28;20471;-72
2021/07/25 11:11:53;;;;;;;2.87;2.23;;;31.70;94.20;;;;;;5064746;28;20475;-72
2021/07/25 11:15:07;;;;;;;4.30;2.73;;;31.20;95.60;;;;;;5067863;28;20458;-72
2021/07/25 11:17:53;;;;;;;3.03;2.30;;;31.70;95.10;;;;;;5019749;28;20486;-72
2021/07/25 11:20:56;;;;;;;5.47;2.57;;;33.50;93.00;;;;;;5060177;28;20446;-73
2021/07/25 11:23:37;;;;;;;5.23;2.57;;;33.90;92.00;;;;;;5056088;28;20454;-72
2021/07/25 11:26:34;;;;;;;3.40;3.10;;;34.00;92.70;;;;;;5061630;28;20443;-72
2021/07/25 11:29:09;;;;;;;2.77;2.17;;;34.40;92.60;;;;;;5058230;28;20545;-71
2021/07/25 11:31:38;;;;;;;3.67;2.60;;;33.30;93.20;;;;;;5060058;28;21047;-72
2021/07/25 11:34:08;;;;;;;7.77;2.40;;;32.10;93.80;;;;;;5067837;28;20461;-71
2021/07/25 11:36:37;;;;;;;2.73;2.23;;;31.30;95.00;;;;;;5065742;28;20487;-72
2021/07/25 11:39:05;;;;;;;3.87;2.90;;;31.00;94.90;;;;;;5064290;28;20497;-71
2021/07/25 11:41:34;;;;;;;3.87;2.73;;;30.30;97.90;;;;;;5059372;28;20631;-72
2021/07/25 11:44:04;;;;;;;3.30;2.80;;;30.20;97.00;;;;;;5065444;28;20470;-72
2021/07/25 11:46:34;;;;;;;3.90;1.60;;;30.50;97.60;;;;;;5069798;28;20471;-72
2021/07/25 11:49:05;;;;;;;3.00;2.07;;;32.10;93.80;;;;;;5063774;28;20447;-71
2021/07/25 11:51:33;;;;;;;4.33;2.33;;;33.60;93.40;;;;;;5066133;28;20514;-72
2021/07/25 11:54:01;;;;;;;3.70;2.40;;;34.60;90.80;;;;;;5056949;28;20632;-72
2021/07/25 11:56:29;;;;;;;2.87;2.17;;;34.80;89.00;;;;;;5058694;28;20968;-72
2021/07/25 11:59:04;;;;;;;2.47;2.27;;;34.50;89.00;;;;;;5057054;28;20903;-71
2021/07/25 12:01:32;;;;;;;2.60;2.40;;;34.60;93.50;;;;;;5055265;28;20479;-73
2021/07/25 12:04:00;;;;;;;3.80;2.40;;;35.60;86.80;;;;;;5057972;28;20912;-72
2021/07/25 12:06:27;;;;;;;4.10;2.40;;;35.50;85.30;;;;;;5055818;28;20574;-72
2021/07/25 12:09:06;;;;;;;2.60;2.27;;;35.00;89.50;;;;;;5050935;28;20541;-72
2021/07/25 12:11:33;;;;;;;5.73;2.67;;;35.20;90.10;;;;;;5065008;28;20561;-72
2021/07/25 12:14:00;;;;;;;4.23;2.27;;;35.30;88.80;;;;;;5055654;28;20987;-73
2021/07/25 12:16:42;;;;;;;2.10;1.90;;;36.50;85.10;;;;;;5059737;28;20470;-72
2021/07/25 12:19:13;;;;;;;2.63;2.10;;;36.70;75.90;;;;;;5053848;28;21529;-72
2021/07/25 12:21:40;;;;;;;2.97;2.10;;;36.20;76.00;;;;;;5060265;28;20864;-73
2021/07/25 12:24:25;;;;;;;2.90;2.00;;;36.90;83.10;;;;;;5056293;28;20454;-72
2021/07/25 12:26:52;;;;;;;2.40;1.80;;;38.20;73.90;;;;;;5061209;28;20579;-72
2021/07/25 12:29:42;;;;;;;2.70;1.57;;;38.00;70.60;;;;;;5061305;28;20451;-73
2021/07/25 12:32:30;;;;;;;2.13;1.70;;;38.20;69.90;;;;;;5057398;28;20481;-71
2021/07/25 12:35:32;;;;;;;3.57;1.83;;;37.30;67.60;;;;;;5058113;28;20451;-72
2021/07/25 12:38:00;;;;;;;2.60;2.40;;;36.70;67.60;;;;;;5055709;28;20458;-72
2021/07/25 12:40:29;;;;;;;2.90;2.17;;;36.70;68.70;;;;;;5053163;28;20447;-72
2021/07/25 12:43:05;;;;;;;2.90;2.00;;;37.60;68.30;;;;;;5052688;28;20525;-72
2021/07/25 12:45:45;;;;;;;3.33;1.70;;;37.80;64.90;;;;;;5052177;28;20439;-72
2021/07/25 12:48:17;;;;;;;4.50;2.10;;;36.70;63.70;;;;;;5064565;28;20986;-72
2021/07/25 12:50:47;;;;;;;2.00;1.77;;;35.80;65.70;;;;;;5065888;28;20473;-72
2021/07/25 12:53:21;;;;;;;2.70;2.20;;;36.10;64.80;;;;;;5066099;28;20906;-72